createdAt,value
2022-10-11T00:00:00.206Z,102150
2022-10-11T00:05:00.183Z,102140
2022-10-11T00:10:00.183Z,102110
2022-10-11T00:15:00.176Z,102140
2022-10-11T00:20:00.171Z,102130
2022-10-11T00:25:00.181Z,102130
2022-10-11T00:30:00.214Z,102150
2022-10-11T00:35:00.158Z,102130
2022-10-11T00:40:00.168Z,102130
2022-10-11T00:45:00.175Z,102150
2022-10-11T00:50:00.181Z,102150
2022-10-11T00:55:00.145Z,102160
2022-10-11T01:00:00.211Z,102150
2022-10-11T01:05:25.301Z,102170
2022-10-11T01:10:00.150Z,102150
2022-10-11T01:15:00.180Z,102160
2022-10-11T01:20:00.176Z,102150
2022-10-11T01:25:00.169Z,102160
2022-10-11T01:30:00.174Z,102170
2022-10-11T01:35:00.183Z,102170
2022-10-11T01:40:00.191Z,102170
2022-10-11T01:45:00.178Z,102170
2022-10-11T01:50:00.184Z,102200
2022-10-11T01:55:11.996Z,102180
2022-10-11T02:00:00.215Z,102200
2022-10-11T02:05:00.191Z,102200
2022-10-11T02:10:00.173Z,102200
2022-10-11T02:15:00.184Z,102210
2022-10-11T02:20:00.160Z,102210
2022-10-11T02:25:00.186Z,102200
2022-10-11T02:30:00.179Z,102200
2022-10-11T02:35:00.183Z,102200
2022-10-11T02:40:00.146Z,102210
2022-10-11T02:45:00.176Z,102200
2022-10-11T02:50:00.198Z,102220
2022-10-11T02:55:00.155Z,102220
2022-10-11T03:00:00.218Z,102230
2022-10-11T03:05:00.167Z,102200
2022-10-11T03:10:00.187Z,102220
2022-10-11T03:15:00.183Z,102230
2022-10-11T03:20:00.192Z,102240
2022-10-11T03:25:03.975Z,102210
2022-10-11T03:30:00.194Z,102240
2022-10-11T03:35:00.156Z,102230
2022-10-11T03:40:00.190Z,102230
2022-10-11T03:45:00.185Z,102250
2022-10-11T03:50:00.192Z,102250
2022-10-11T03:55:00.170Z,102260
2022-10-11T04:00:00.259Z,102280
2022-10-11T04:05:00.230Z,102260
2022-10-11T04:10:00.188Z,102260
2022-10-11T04:15:00.164Z,102270
2022-10-11T04:20:00.176Z,102270
2022-10-11T04:25:00.196Z,102260
2022-10-11T04:30:00.210Z,102290
2022-10-11T04:35:00.165Z,102290
2022-10-11T04:40:00.178Z,102280
2022-10-11T04:45:00.209Z,102280
2022-10-11T04:50:00.185Z,102290
2022-10-11T04:55:00.187Z,102280
2022-10-11T05:00:00.256Z,102280
2022-10-11T05:05:00.191Z,102300
2022-10-11T05:10:00.185Z,102300
2022-10-11T05:15:00.203Z,102300
2022-10-11T05:20:00.204Z,102310
2022-10-11T05:25:00.201Z,102300
2022-10-11T05:30:00.198Z,102300
2022-10-11T05:35:00.198Z,102310
2022-10-11T05:40:00.196Z,102340
2022-10-11T05:45:00.212Z,102330
2022-10-11T05:50:00.230Z,102320
2022-10-11T05:55:00.235Z,102330
2022-10-11T06:00:00.407Z,102330
2022-10-11T06:05:00.176Z,102330
2022-10-11T06:10:00.194Z,102320
2022-10-11T06:15:00.162Z,102330
2022-10-11T06:20:00.188Z,102330
2022-10-11T06:25:00.177Z,102320
2022-10-11T06:30:00.204Z,102360
2022-10-11T06:35:00.197Z,102340
2022-10-11T06:40:00.229Z,102360
2022-10-11T06:45:00.227Z,102370
2022-10-11T06:50:00.209Z,102370
2022-10-11T06:55:00.214Z,102370
2022-10-11T07:00:00.278Z,102380
2022-10-11T07:05:00.265Z,102380
2022-10-11T07:10:00.229Z,102390
2022-10-11T07:15:00.190Z,102400
2022-10-11T07:20:00.211Z,102400
2022-10-11T07:25:00.292Z,102390
2022-10-11T07:30:00.213Z,102410
2022-10-11T07:35:00.199Z,102410
2022-10-11T07:40:00.201Z,102400
2022-10-11T07:45:00.258Z,102430
2022-10-11T07:50:00.207Z,102410
2022-10-11T07:55:00.209Z,102420
2022-10-11T08:00:00.247Z,102420
2022-10-11T08:05:00.202Z,102440
2022-10-11T08:10:00.192Z,102410
2022-10-11T08:15:00.218Z,102420
2022-10-11T08:20:00.199Z,102440
2022-10-11T08:25:00.232Z,102440
2022-10-11T08:30:00.249Z,102450
2022-10-11T08:35:00.199Z,102440
2022-10-11T08:40:00.247Z,102440
2022-10-11T08:45:10.674Z,102470
2022-10-11T08:50:00.205Z,102450
2022-10-11T08:55:00.210Z,102450
2022-10-11T09:00:00.217Z,102460
2022-10-11T09:05:11.470Z,102470
2022-10-11T09:10:00.185Z,102460
2022-10-11T09:15:00.224Z,102460
2022-10-11T09:20:00.294Z,102470
2022-10-11T09:25:00.202Z,102470
2022-10-11T09:30:00.197Z,102470
2022-10-11T09:35:00.206Z,102470
2022-10-11T09:40:00.227Z,102460
2022-10-11T09:45:00.217Z,102480
2022-10-11T09:50:00.214Z,102480
2022-10-11T09:55:00.237Z,102490
2022-10-11T10:00:00.237Z,102480
2022-10-11T10:05:00.220Z,102460
2022-10-11T10:10:00.203Z,102470
2022-10-11T10:15:00.191Z,102470
2022-10-11T10:20:00.196Z,102490
2022-10-11T10:25:00.350Z,102460
2022-10-11T10:30:00.215Z,102480
2022-10-11T10:35:00.206Z,102470
2022-10-11T10:40:00.223Z,102470
2022-10-11T10:45:00.229Z,102490
2022-10-11T10:50:00.229Z,102460
2022-10-11T10:55:00.205Z,102480
2022-10-11T11:00:00.256Z,102480
2022-10-11T11:10:00.231Z,102460
2022-10-11T11:15:00.208Z,102470
2022-10-11T11:20:00.209Z,102450
2022-10-11T11:25:00.205Z,102430
2022-10-11T11:30:00.209Z,102440
2022-10-11T11:35:00.222Z,102440
2022-10-11T11:40:00.230Z,102430
2022-10-11T11:45:00.192Z,102430
2022-10-11T11:50:00.247Z,102450
2022-10-11T11:55:03.782Z,102430
2022-10-11T12:00:00.245Z,102430
2022-10-11T12:05:00.268Z,102430
2022-10-11T12:10:00.194Z,102410
2022-10-11T12:15:00.203Z,102420
2022-10-11T12:20:00.208Z,102400
2022-10-11T12:25:00.205Z,102410
2022-10-11T12:30:00.236Z,102410
2022-10-11T12:35:00.185Z,102390
2022-10-11T12:40:00.213Z,102390
2022-10-11T12:45:00.249Z,102390
2022-10-11T12:50:00.232Z,102370
2022-10-11T12:55:00.212Z,102370
2022-10-11T13:00:00.237Z,102390
2022-10-11T13:05:00.227Z,102370
2022-10-11T13:10:00.491Z,102380
2022-10-11T13:15:00.209Z,102380
2022-10-11T13:20:00.233Z,102370
2022-10-11T13:25:00.222Z,102400
2022-10-11T13:30:00.229Z,102380
2022-10-11T13:35:00.215Z,102370
2022-10-11T13:40:00.230Z,102360
2022-10-11T13:45:00.224Z,102370
2022-10-11T13:50:00.215Z,102380
2022-10-11T13:55:00.215Z,102370
2022-10-11T14:00:00.257Z,102350
2022-10-11T14:05:00.232Z,102360
2022-10-11T14:10:00.214Z,102370
2022-10-11T14:15:00.236Z,102370
2022-10-11T14:20:06.069Z,102320
2022-10-11T14:25:00.194Z,102340
2022-10-11T14:30:24.097Z,102360
2022-10-11T14:35:00.236Z,102340
2022-10-11T14:40:00.291Z,102330
2022-10-11T14:45:00.190Z,102340
2022-10-11T14:50:00.237Z,102340
2022-10-11T14:55:00.194Z,102340
2022-10-11T15:00:00.337Z,102340
2022-10-11T15:05:00.217Z,102330
2022-10-11T15:10:00.203Z,102330
2022-10-11T15:15:00.210Z,102330
2022-10-11T15:20:00.210Z,102360
2022-10-11T15:25:00.224Z,102330
2022-10-11T15:30:00.264Z,102340
2022-10-11T15:35:00.268Z,102330
2022-10-11T15:40:00.318Z,102330
2022-10-11T15:45:00.240Z,102320
2022-10-11T15:50:00.365Z,102310
2022-10-11T15:55:00.246Z,102320
2022-10-11T16:00:00.302Z,102300
2022-10-11T16:05:00.248Z,102300
2022-10-11T16:10:00.226Z,102310
2022-10-11T16:15:00.233Z,102300
2022-10-11T16:20:00.213Z,102310
2022-10-11T16:25:00.260Z,102320
2022-10-11T16:30:00.251Z,102310
2022-10-11T16:35:00.208Z,102310
2022-10-11T16:40:00.258Z,102310
2022-10-11T16:45:00.309Z,102320
2022-10-11T16:55:00.240Z,102340
2022-10-11T17:00:00.282Z,102330
2022-10-11T17:05:00.225Z,102320
2022-10-11T17:10:00.280Z,102330
2022-10-11T17:15:00.253Z,102320
2022-10-11T17:35:00.324Z,102330
2022-10-11T17:40:00.384Z,102340
2022-10-11T17:50:00.253Z,102330
2022-10-11T17:55:00.284Z,102320
2022-10-11T18:00:00.300Z,102320
2022-10-11T18:05:00.242Z,102340
2022-10-11T18:10:00.244Z,102350
2022-10-11T18:15:00.303Z,102340
2022-10-11T18:20:00.258Z,102320
2022-10-11T18:25:00.265Z,102330
2022-10-11T18:30:00.258Z,102330
2022-10-11T18:35:00.755Z,102330
2022-10-11T18:40:01.132Z,102350
2022-10-11T18:45:02.068Z,102320
2022-10-11T18:50:00.253Z,102320
2022-10-11T18:55:01.162Z,102330
2022-10-11T19:00:11.497Z,102330
2022-10-11T19:05:01.733Z,102330
2022-10-11T19:15:00.311Z,102320
2022-10-11T19:20:01.215Z,102330
2022-10-11T19:25:00.291Z,102330
2022-10-11T19:30:00.306Z,102320
2022-10-11T19:35:00.353Z,102330
2022-10-11T19:40:01.110Z,102330
2022-10-11T20:05:00.421Z,102310
2022-10-11T20:25:00.425Z,102300
2022-10-11T20:30:00.350Z,102310
2022-10-11T20:35:00.379Z,102330
2022-10-11T20:40:00.320Z,102330
2022-10-11T20:45:00.357Z,102310
2022-10-11T20:50:00.309Z,102310
2022-10-11T20:55:00.343Z,102320
2022-10-11T21:00:00.374Z,102310
2022-10-11T21:10:00.288Z,102310
2022-10-11T21:15:00.284Z,102330
2022-10-11T21:20:00.291Z,102330
2022-10-11T21:25:00.279Z,102320
2022-10-11T21:30:00.289Z,102310
2022-10-11T21:35:00.264Z,102330
2022-10-11T21:40:00.262Z,102300
2022-10-11T21:45:00.444Z,102310
2022-10-11T21:50:00.243Z,102310
2022-10-11T21:55:00.276Z,102330
2022-10-11T22:00:08.165Z,102310
2022-10-11T22:05:00.248Z,102310
2022-10-11T22:10:00.257Z,102310
2022-10-11T22:15:00.577Z,102310
2022-10-11T22:20:00.472Z,102310
2022-10-11T22:25:00.282Z,102300
2022-10-11T22:30:00.525Z,102320
2022-10-11T22:35:00.944Z,102290
2022-10-11T22:40:00.285Z,102300
2022-10-11T22:45:00.290Z,102310
2022-10-11T22:50:00.306Z,102310
2022-10-11T22:55:00.565Z,102300
2022-10-11T23:00:00.680Z,102300
2022-10-11T23:05:00.378Z,102300
2022-10-11T23:10:00.755Z,102300
2022-10-11T23:15:00.912Z,102280
2022-10-11T23:20:00.240Z,102310
2022-10-11T23:25:00.261Z,102300
2022-10-11T23:30:00.264Z,102300
2022-10-11T23:35:00.263Z,102300
2022-10-11T23:40:00.301Z,102290
2022-10-11T23:45:00.277Z,102290
2022-10-11T23:50:00.336Z,102280
2022-10-11T23:55:00.290Z,102280
